createdAt,value
2019-03-06T00:01:23.509Z,4.00
2019-03-06T00:03:52.558Z,4.10
2019-03-06T00:06:21.935Z,4.10
2019-03-06T00:08:51.399Z,4.10
2019-03-06T00:11:20.476Z,4.10
2019-03-06T00:13:49.530Z,4.20
2019-03-06T00:16:18.586Z,4.10
2019-03-06T00:18:47.975Z,4.10
2019-03-06T00:21:17.104Z,3.90
2019-03-06T00:23:46.574Z,3.90
2019-03-06T00:26:15.956Z,3.90
2019-03-06T00:28:45.687Z,3.90
2019-03-06T00:31:14.766Z,3.80
2019-03-06T00:33:44.179Z,3.90
2019-03-06T00:36:19.904Z,3.90
2019-03-06T00:38:49.323Z,3.90
2019-03-06T00:41:36.912Z,4.00
2019-03-06T00:44:06.460Z,4.00
2019-03-06T00:46:35.511Z,4.00
2019-03-06T00:49:04.583Z,4.00
2019-03-06T00:51:33.925Z,4.00
2019-03-06T00:54:03.007Z,4.10
2019-03-06T00:56:32.061Z,4.10
2019-03-06T00:59:01.137Z,4.00
2019-03-06T01:01:30.202Z,4.00
2019-03-06T01:03:59.607Z,4.00
2019-03-06T01:06:28.813Z,4.00
2019-03-06T01:08:58.640Z,3.90
2019-03-06T01:11:28.290Z,3.90
2019-03-06T01:13:57.350Z,3.90
2019-03-06T01:16:26.395Z,3.90
2019-03-06T01:18:55.751Z,3.80
2019-03-06T01:21:24.816Z,3.90
2019-03-06T01:23:53.890Z,3.80
2019-03-06T01:26:22.925Z,3.80
2019-03-06T01:28:52.369Z,3.90
2019-03-06T01:31:21.705Z,3.80
2019-03-06T01:34:19.420Z,3.80
2019-03-06T01:37:14.141Z,3.90
2019-03-06T01:40:00.036Z,3.90
2019-03-06T01:42:42.630Z,3.90
2019-03-06T01:45:12.481Z,3.90
2019-03-06T01:47:41.531Z,3.90
2019-03-06T01:50:13.302Z,4.00
2019-03-06T01:52:42.695Z,4.00
2019-03-06T01:55:13.934Z,4.00
2019-03-06T01:57:43.564Z,4.00
2019-03-06T02:00:16.543Z,3.90
2019-03-06T02:02:45.672Z,3.80
2019-03-06T02:05:14.937Z,3.70
2019-03-06T02:07:44.027Z,3.70
2019-03-06T02:10:13.507Z,3.60
2019-03-06T02:12:42.543Z,3.60
2019-03-06T02:15:13.651Z,3.70
2019-03-06T02:17:42.730Z,3.70
2019-03-06T02:20:13.720Z,3.70
2019-03-06T02:22:43.070Z,3.80
2019-03-06T02:25:13.055Z,3.80
2019-03-06T02:27:42.999Z,3.80
2019-03-06T02:30:14.742Z,3.80
2019-03-06T02:32:44.109Z,3.80
2019-03-06T02:35:13.604Z,3.80
2019-03-06T02:37:42.661Z,3.90
2019-03-06T02:40:13.001Z,3.90
2019-03-06T02:42:42.430Z,3.90
2019-03-06T02:45:12.810Z,3.90
2019-03-06T02:47:41.864Z,4.00
2019-03-06T02:50:12.318Z,4.10
2019-03-06T02:52:41.969Z,4.00
2019-03-06T02:55:11.456Z,4.00
2019-03-06T02:57:45.040Z,4.10
2019-03-06T03:00:37.362Z,4.00
2019-03-06T03:09:20.748Z,4.00
2019-03-06T03:12:44.282Z,3.90
2019-03-06T03:18:55.610Z,3.80
2019-03-06T03:25:06.706Z,3.60
2019-03-06T03:28:29.680Z,3.50
2019-03-06T03:34:40.708Z,3.50
2019-03-06T03:40:50.721Z,3.70
2019-03-06T03:44:13.824Z,3.70
2019-03-06T03:50:24.379Z,3.60
2019-03-06T03:56:34.712Z,3.60
2019-03-06T04:02:45.276Z,3.70
2019-03-06T04:05:15.747Z,3.60
2019-03-06T04:07:44.793Z,3.60
2019-03-06T04:10:13.999Z,3.60
2019-03-06T04:12:43.049Z,3.70
2019-03-06T04:15:11.076Z,3.70
2019-03-06T04:21:21.555Z,3.70
2019-03-06T04:24:44.639Z,3.70
2019-03-06T04:30:55.081Z,3.70
2019-03-06T04:37:05.696Z,3.60
2019-03-06T04:43:15.998Z,3.40
2019-03-06T04:49:26.472Z,3.40
2019-03-06T04:52:49.588Z,3.40
2019-03-06T04:59:00.093Z,3.40
2019-03-06T05:02:23.107Z,3.40
2019-03-06T05:08:34.095Z,3.40
2019-03-06T05:14:44.795Z,3.40
2019-03-06T05:17:42.009Z,3.40
2019-03-06T05:20:11.149Z,3.40
2019-03-06T05:22:40.490Z,3.40
2019-03-06T05:25:09.931Z,3.40
2019-03-06T05:27:39.292Z,3.40
2019-03-06T05:30:09.678Z,3.40
2019-03-06T05:32:39.000Z,3.50
2019-03-06T05:35:44.164Z,3.50
2019-03-06T05:38:16.621Z,3.40
2019-03-06T05:40:46.182Z,3.50
2019-03-06T05:43:15.977Z,3.50
2019-03-06T05:45:45.721Z,3.50
2019-03-06T05:48:15.410Z,3.40
2019-03-06T05:50:44.522Z,3.40
2019-03-06T05:53:13.591Z,3.40
2019-03-06T05:55:42.659Z,3.40
2019-03-06T05:58:11.980Z,3.40
2019-03-06T06:00:41.422Z,3.40
2019-03-06T06:03:10.808Z,3.50
2019-03-06T06:05:41.371Z,3.50
2019-03-06T06:08:10.433Z,3.50
2019-03-06T06:10:39.505Z,3.60
2019-03-06T06:13:08.638Z,3.60
2019-03-06T06:15:37.717Z,3.60
2019-03-06T06:18:07.238Z,3.70
2019-03-06T06:20:36.355Z,3.70
2019-03-06T06:23:11.170Z,3.80
2019-03-06T06:25:40.242Z,3.80
2019-03-06T06:28:09.651Z,3.90
2019-03-06T06:30:39.159Z,3.90
2019-03-06T06:33:08.394Z,3.90
2019-03-06T06:35:38.499Z,3.90
2019-03-06T06:38:07.858Z,4.10
2019-03-06T06:40:36.965Z,4.10
2019-03-06T06:43:06.667Z,4.10
2019-03-06T06:45:36.357Z,4.10
2019-03-06T06:48:13.515Z,4.10
2019-03-06T06:51:07.013Z,4.00
2019-03-06T06:54:02.876Z,4.10
2019-03-06T06:57:30.067Z,4.10
2019-03-06T07:00:58.126Z,4.10
2019-03-06T07:04:19.569Z,4.20
2019-03-06T07:07:10.029Z,4.20
2019-03-06T07:09:54.634Z,4.20
2019-03-06T07:12:52.044Z,4.30
2019-03-06T07:15:39.015Z,4.30
2019-03-06T07:18:27.138Z,4.40
2019-03-06T07:21:03.408Z,4.40
2019-03-06T07:23:41.729Z,4.50
2019-03-06T07:26:48.032Z,4.50
2019-03-06T07:29:24.244Z,4.60
2019-03-06T07:32:12.380Z,4.80
2019-03-06T07:35:06.366Z,5.00
2019-03-06T07:37:45.076Z,5.30
2019-03-06T07:40:23.413Z,5.70
2019-03-06T07:43:00.485Z,6.10
2019-03-06T07:46:13.042Z,6.40
2019-03-06T07:49:16.687Z,6.70
2019-03-06T07:52:12.341Z,6.80
2019-03-06T07:55:19.240Z,7.10
2019-03-06T07:58:24.087Z,7.20
2019-03-06T08:00:53.483Z,7.60
2019-03-06T08:03:37.674Z,8.20
2019-03-06T08:06:06.832Z,8.90
2019-03-06T08:08:36.692Z,8.30
2019-03-06T08:11:11.503Z,8.50
2019-03-06T08:13:47.239Z,8.70
2019-03-06T08:16:35.458Z,8.70
2019-03-06T08:19:14.971Z,8.70
2019-03-06T08:22:09.376Z,8.80
2019-03-06T08:24:51.332Z,9.10
2019-03-06T08:27:20.439Z,9.30
2019-03-06T08:29:49.823Z,9.30
2019-03-06T08:32:37.009Z,9.40
2019-03-06T08:35:08.087Z,9.20
2019-03-06T08:37:37.487Z,9.30
2019-03-06T08:40:07.372Z,9.50
2019-03-06T08:42:36.426Z,9.50
2019-03-06T08:45:07.375Z,9.60
2019-03-06T08:48:07.798Z,9.50
2019-03-06T08:50:45.821Z,9.50
2019-03-06T08:53:19.717Z,9.60
2019-03-06T08:56:11.147Z,9.40
2019-03-06T08:59:02.467Z,9.50
2019-03-06T09:01:49.153Z,9.40
2019-03-06T09:04:26.351Z,9.80
2019-03-06T09:07:17.850Z,9.80
2019-03-06T09:10:21.375Z,10.00
2019-03-06T09:13:06.160Z,10.30
2019-03-06T09:15:53.162Z,10.60
2019-03-06T09:18:44.046Z,11.50
2019-03-06T09:21:19.209Z,11.40
2019-03-06T09:24:11.515Z,12.30
2019-03-06T09:27:02.488Z,12.70
2019-03-06T09:29:43.656Z,12.60
2019-03-06T09:32:34.787Z,12.60
2019-03-06T09:35:21.631Z,12.40
2019-03-06T09:38:11.261Z,12.80
2019-03-06T09:40:59.931Z,13.90
2019-03-06T09:43:36.023Z,14.30
2019-03-06T09:46:12.317Z,14.70
2019-03-06T09:48:49.970Z,14.80
2019-03-06T09:51:37.296Z,15.10
2019-03-06T09:54:25.541Z,15.50
2019-03-06T09:57:32.283Z,15.10
2019-03-06T10:00:33.061Z,14.50
2019-03-06T10:03:33.306Z,13.90
2019-03-06T10:06:27.570Z,13.50
2019-03-06T10:09:05.395Z,13.50
2019-03-06T10:11:56.520Z,13.10
2019-03-06T10:14:50.663Z,12.70
2019-03-06T10:17:37.818Z,12.90
2019-03-06T10:20:11.080Z,13.20
2019-03-06T10:22:40.163Z,13.30
2019-03-06T10:25:09.283Z,13.40
2019-03-06T10:27:38.758Z,13.40
2019-03-06T10:30:11.780Z,13.50
2019-03-06T10:32:41.132Z,13.90
2019-03-06T10:35:12.096Z,13.70
2019-03-06T10:37:42.106Z,13.90
2019-03-06T10:40:14.051Z,14.10
2019-03-06T10:42:43.177Z,14.30
2019-03-06T10:45:12.831Z,14.40
2019-03-06T10:47:42.370Z,14.90
2019-03-06T10:50:13.676Z,14.40
2019-03-06T10:52:42.759Z,13.70
2019-03-06T10:55:13.419Z,13.40
2019-03-06T10:57:42.477Z,13.40
2019-03-06T11:00:20.098Z,13.70
2019-03-06T11:02:49.438Z,13.70
2019-03-06T11:05:24.429Z,13.80
2019-03-06T11:07:54.829Z,14.10
2019-03-06T11:10:25.991Z,14.30
2019-03-06T11:12:57.028Z,14.20
2019-03-06T11:15:26.462Z,13.90
2019-03-06T11:17:55.679Z,13.90
2019-03-06T11:20:28.223Z,14.10
2019-03-06T11:22:58.654Z,14.40
2019-03-06T11:25:29.719Z,14.50
2019-03-06T11:27:58.787Z,14.00
2019-03-06T11:30:35.563Z,13.80
2019-03-06T11:33:05.980Z,13.50
2019-03-06T11:35:35.375Z,13.40
2019-03-06T11:38:05.411Z,13.20
2019-03-06T11:40:36.016Z,13.20
2019-03-06T11:43:06.708Z,13.20
2019-03-06T11:45:37.542Z,13.10
2019-03-06T11:48:06.922Z,13.20
2019-03-06T11:50:40.868Z,13.20
2019-03-06T11:53:07.836Z,13.40
2019-03-06T11:55:37.708Z,13.40
2019-03-06T11:58:08.876Z,13.40
2019-03-06T12:00:43.650Z,13.30
2019-03-06T12:03:13.480Z,13.30
2019-03-06T12:05:43.031Z,13.10
2019-03-06T12:08:14.353Z,12.90
2019-03-06T12:10:44.071Z,12.80
2019-03-06T12:13:15.144Z,12.90
2019-03-06T12:15:46.741Z,13.00
2019-03-06T12:18:19.509Z,13.10
2019-03-06T12:20:48.674Z,13.20
2019-03-06T12:23:18.179Z,13.40
2019-03-06T12:25:47.236Z,13.40
2019-03-06T12:28:17.037Z,13.50
2019-03-06T12:30:46.610Z,13.50
2019-03-06T12:33:19.955Z,13.50
2019-03-06T12:35:49.391Z,13.30
2019-03-06T12:38:18.493Z,13.30
2019-03-06T12:40:47.996Z,13.40
2019-03-06T12:43:17.374Z,13.40
2019-03-06T12:46:24.346Z,13.50
2019-03-06T12:49:14.889Z,13.60
2019-03-06T12:51:43.970Z,13.80
2019-03-06T12:54:13.034Z,14.10
2019-03-06T12:56:42.887Z,14.10
2019-03-06T12:59:12.324Z,14.20
2019-03-06T13:01:41.752Z,14.20
2019-03-06T13:04:11.585Z,14.00
2019-03-06T13:06:41.335Z,14.00
2019-03-06T13:09:28.927Z,13.90
2019-03-06T13:11:58.375Z,14.00
2019-03-06T13:14:30.336Z,14.00
2019-03-06T13:16:59.049Z,14.00
2019-03-06T13:19:28.130Z,14.00
2019-03-06T13:21:57.220Z,14.10
2019-03-06T13:24:27.022Z,14.30
2019-03-06T13:26:57.999Z,14.40
2019-03-06T13:29:27.430Z,14.50
2019-03-06T13:31:56.923Z,14.20
2019-03-06T13:34:30.063Z,14.40
2019-03-06T13:36:59.761Z,14.60
2019-03-06T13:39:28.831Z,14.60
2019-03-06T13:41:59.172Z,14.50
2019-03-06T13:44:28.261Z,14.30
2019-03-06T13:46:57.407Z,14.30
2019-03-06T13:49:26.563Z,14.20
2019-03-06T13:51:55.974Z,14.10
2019-03-06T13:54:25.117Z,14.10
2019-03-06T13:56:54.606Z,14.20
2019-03-06T13:59:24.877Z,14.00
2019-03-06T14:01:54.407Z,13.90
2019-03-06T14:04:23.489Z,13.90
2019-03-06T14:06:52.893Z,13.90
2019-03-06T14:09:21.955Z,14.00
2019-03-06T14:11:51.055Z,14.00
2019-03-06T14:14:20.512Z,14.00
2019-03-06T14:16:49.605Z,14.00
2019-03-06T14:19:19.010Z,14.00
2019-03-06T14:21:49.259Z,14.10
2019-03-06T14:24:19.891Z,14.10
2019-03-06T14:26:49.178Z,14.20
2019-03-06T14:29:18.238Z,14.00
2019-03-06T14:31:47.646Z,14.00
2019-03-06T14:34:16.745Z,13.90
2019-03-06T14:36:46.587Z,13.90
2019-03-06T14:39:27.575Z,13.90
2019-03-06T14:41:57.956Z,13.70
2019-03-06T14:44:27.458Z,13.60
2019-03-06T14:46:56.523Z,13.60
2019-03-06T14:49:25.638Z,13.50
2019-03-06T14:51:55.995Z,13.60
2019-03-06T15:19:16.920Z,13.60
2019-03-06T15:26:06.304Z,13.70
2019-03-06T15:28:35.405Z,13.70
2019-03-06T15:31:04.532Z,13.60
2019-03-06T15:33:33.615Z,13.50
2019-03-06T15:36:08.541Z,13.50
2019-03-06T15:38:38.152Z,13.50
2019-03-06T15:41:08.117Z,13.50
2019-03-06T15:43:37.709Z,13.50
2019-03-06T15:46:06.888Z,13.50
2019-03-06T15:48:36.471Z,13.50
2019-03-06T15:51:05.823Z,13.40
2019-03-06T15:53:36.191Z,13.40
2019-03-06T15:56:05.649Z,13.30
2019-03-06T15:58:35.500Z,13.30
2019-03-06T16:01:06.217Z,13.30
2019-03-06T16:03:36.020Z,13.20
2019-03-06T16:06:06.275Z,13.20
2019-03-06T16:08:35.452Z,13.10
2019-03-06T16:11:06.550Z,13.00
2019-03-06T16:13:35.924Z,13.00
2019-03-06T16:16:05.896Z,12.90
2019-03-06T16:18:36.268Z,12.90
2019-03-06T16:21:07.855Z,12.90
2019-03-06T16:23:37.041Z,12.90
2019-03-06T16:26:06.198Z,12.80
2019-03-06T16:28:35.928Z,12.80
2019-03-06T16:31:05.526Z,12.70
2019-03-06T16:33:34.650Z,12.70
2019-03-06T16:36:04.300Z,12.70
2019-03-06T16:38:33.723Z,12.70
2019-03-06T16:41:03.343Z,12.60
2019-03-06T16:43:33.057Z,12.60
2019-03-06T16:46:02.534Z,12.60
2019-03-06T16:48:31.829Z,12.60
2019-03-06T16:51:01.983Z,12.50
2019-03-06T16:53:31.999Z,12.50
2019-03-06T16:56:01.963Z,12.50
2019-03-06T16:58:31.194Z,12.40
2019-03-06T17:01:02.717Z,12.30
2019-03-06T17:03:32.315Z,12.30
2019-03-06T17:06:02.163Z,12.20
2019-03-06T17:08:31.247Z,12.10
2019-03-06T17:11:00.691Z,12.10
2019-03-06T17:13:29.835Z,12.10
2019-03-06T17:15:59.521Z,12.00
2019-03-06T17:18:29.483Z,11.90
2019-03-06T17:20:58.600Z,11.90
2019-03-06T17:23:27.984Z,11.90
2019-03-06T17:25:57.908Z,11.80
2019-03-06T17:28:27.894Z,11.80
2019-03-06T17:30:57.722Z,11.70
2019-03-06T17:33:26.793Z,11.70
2019-03-06T17:35:56.256Z,11.70
2019-03-06T17:38:25.433Z,11.60
2019-03-06T17:40:54.819Z,11.60
2019-03-06T17:43:24.672Z,11.60
2019-03-06T17:45:53.833Z,11.60
2019-03-06T17:48:23.702Z,11.50
2019-03-06T17:50:53.111Z,11.50
2019-03-06T17:53:22.553Z,11.50
2019-03-06T17:55:53.019Z,11.50
2019-03-06T17:58:22.310Z,11.40
2019-03-06T18:00:54.387Z,11.40
2019-03-06T18:03:36.023Z,11.40
2019-03-06T18:06:05.225Z,11.40
2019-03-06T18:08:36.016Z,11.40
2019-03-06T18:11:07.142Z,11.50
2019-03-06T18:13:36.571Z,11.50
2019-03-06T18:16:05.959Z,11.40
2019-03-06T18:18:35.052Z,11.40
2019-03-06T18:21:04.448Z,11.40
2019-03-06T18:23:34.439Z,11.40
2019-03-06T18:26:06.003Z,11.40
2019-03-06T18:28:35.219Z,11.40
2019-03-06T18:31:04.823Z,11.30
2019-03-06T18:33:33.892Z,11.40
2019-03-06T18:36:03.501Z,11.30
2019-03-06T18:38:33.325Z,11.40
2019-03-06T18:41:02.839Z,11.30
2019-03-06T18:43:32.263Z,11.30
2019-03-06T18:46:02.787Z,11.30
2019-03-06T18:48:32.544Z,11.30
2019-03-06T18:51:03.067Z,11.30
2019-03-06T18:53:32.220Z,11.20
2019-03-06T18:56:01.390Z,11.20
2019-03-06T18:58:31.136Z,11.20
2019-03-06T19:01:00.950Z,11.10
2019-03-06T19:03:31.011Z,11.10
2019-03-06T19:06:00.976Z,11.00
2019-03-06T19:08:31.573Z,10.90
2019-03-06T19:11:00.951Z,10.90
2019-03-06T19:13:30.309Z,10.90
2019-03-06T19:15:59.472Z,10.90
2019-03-06T19:18:29.292Z,10.80
2019-03-06T19:20:58.952Z,10.80
2019-03-06T19:23:28.437Z,10.70
2019-03-06T19:25:58.139Z,10.60
2019-03-06T19:28:27.604Z,10.70
2019-03-06T19:30:58.076Z,10.60
2019-03-06T19:33:27.319Z,10.60
2019-03-06T19:35:57.214Z,10.50
2019-03-06T19:38:26.648Z,10.50
2019-03-06T19:40:56.104Z,10.50
2019-03-06T19:43:25.489Z,10.50
2019-03-06T19:45:54.907Z,10.50
2019-03-06T19:48:25.552Z,10.50
2019-03-06T19:50:55.744Z,10.50
2019-03-06T19:53:25.136Z,10.40
2019-03-06T19:55:54.614Z,10.40
2019-03-06T19:58:24.091Z,10.40
2019-03-06T20:00:54.096Z,10.50
2019-03-06T20:03:24.115Z,10.40
2019-03-06T20:05:54.042Z,10.40
2019-03-06T20:08:23.525Z,10.40
2019-03-06T20:10:53.067Z,10.40
2019-03-06T20:13:23.398Z,10.40
2019-03-06T20:15:53.256Z,10.40
2019-03-06T20:18:23.680Z,10.40
2019-03-06T20:20:53.550Z,10.40
2019-03-06T20:23:22.983Z,10.30
2019-03-06T20:25:53.128Z,10.30
2019-03-06T20:28:22.981Z,10.30
2019-03-06T20:30:52.483Z,10.30
2019-03-06T20:33:22.893Z,10.30
2019-03-06T20:35:52.285Z,10.30
2019-03-06T20:38:21.400Z,10.30
2019-03-06T20:40:51.486Z,10.30
2019-03-06T20:43:21.319Z,10.30
2019-03-06T20:45:51.111Z,10.20
2019-03-06T20:48:20.778Z,10.20
2019-03-06T20:50:54.477Z,10.30
2019-03-06T20:53:23.639Z,10.30
2019-03-06T20:55:53.143Z,10.20
2019-03-06T20:58:22.743Z,10.20
2019-03-06T21:00:52.442Z,10.20
2019-03-06T21:03:21.770Z,10.20
2019-03-06T21:05:51.254Z,10.10
2019-03-06T21:08:21.079Z,10.20
2019-03-06T21:10:51.653Z,10.20
2019-03-06T21:13:21.085Z,10.20
2019-03-06T21:15:50.655Z,10.10
2019-03-06T21:18:20.074Z,10.20
2019-03-06T21:20:49.932Z,10.20
2019-03-06T21:23:19.572Z,10.20
2019-03-06T21:25:48.912Z,10.20
2019-03-06T21:28:19.282Z,10.20
2019-03-06T21:30:48.447Z,10.20
2019-03-06T21:33:18.189Z,10.20
2019-03-06T21:35:47.749Z,10.10
2019-03-06T21:38:17.179Z,10.10
2019-03-06T21:40:46.714Z,10.10
2019-03-06T21:43:15.785Z,10.10
2019-03-06T21:45:45.292Z,10.00
2019-03-06T21:48:14.769Z,10.00
2019-03-06T21:50:44.835Z,10.00
2019-03-06T21:53:14.442Z,10.00
2019-03-06T21:55:43.555Z,10.00
2019-03-06T21:58:12.999Z,10.00
2019-03-06T22:00:42.256Z,9.90
2019-03-06T22:03:12.063Z,9.90
2019-03-06T22:05:41.219Z,9.90
2019-03-06T22:08:10.832Z,9.80
2019-03-06T22:10:40.265Z,9.90
2019-03-06T22:13:09.346Z,9.70
2019-03-06T22:15:39.495Z,9.80
2019-03-06T22:18:09.911Z,9.90
2019-03-06T22:20:40.513Z,9.90
2019-03-06T22:23:09.901Z,9.90
2019-03-06T22:25:39.077Z,10.00
2019-03-06T22:28:08.242Z,10.00
2019-03-06T22:30:37.621Z,10.10
2019-03-06T22:33:07.435Z,10.10
2019-03-06T22:35:36.541Z,10.00
2019-03-06T22:38:06.559Z,10.00
2019-03-06T22:40:37.074Z,10.00
2019-03-06T22:43:07.285Z,9.90
2019-03-06T22:45:36.718Z,9.90
2019-03-06T22:48:06.104Z,9.90
2019-03-06T22:50:35.470Z,9.90
2019-03-06T22:53:05.288Z,9.90
2019-03-06T22:55:35.055Z,9.90
2019-03-06T22:58:04.434Z,9.90
2019-03-06T23:01:00.563Z,9.90
2019-03-06T23:03:31.173Z,9.80
2019-03-06T23:06:01.496Z,9.80
2019-03-06T23:08:31.199Z,9.80
2019-03-06T23:11:00.703Z,9.80
2019-03-06T23:13:30.135Z,9.80
2019-03-06T23:15:59.507Z,9.80
2019-03-06T23:18:28.628Z,9.90
2019-03-06T23:20:57.700Z,10.00
2019-03-06T23:23:27.118Z,10.00
2019-03-06T23:25:56.555Z,10.10
2019-03-06T23:28:26.065Z,10.10
2019-03-06T23:30:55.536Z,10.20
2019-03-06T23:33:25.074Z,10.10
2019-03-06T23:35:54.159Z,10.10
2019-03-06T23:38:23.389Z,10.00
2019-03-06T23:40:52.744Z,10.00
2019-03-06T23:43:21.932Z,10.00
2019-03-06T23:45:51.005Z,9.90
2019-03-06T23:48:22.277Z,9.90
2019-03-06T23:50:51.415Z,9.90
2019-03-06T23:53:31.747Z,9.90
2019-03-06T23:56:01.153Z,9.90
2019-03-06T23:58:30.276Z,9.80
